Time;durP1;ratioP1;P1;durP2;ratioP2;P2;SDS_P1;SDS_P2;PMS_P1;PMS_P2;Temp;Humidity;BMP_temperature;BMP_pressure;BME280_temperature;BME280_humidity;BME280_pressure;Samples;Min_cycle;Max_cycle;Signal;HPM_P1;HPM_P2
2021/10/31 00:02:16;;;;;;;21.50;10.85;;;10.60;99.90;;;;;;4979547;28;20030;-70
2021/10/31 00:04:44;;;;;;;20.20;11.35;;;10.60;99.90;;;;;;4979401;28;20047;-70
2021/10/31 00:07:11;;;;;;;20.23;11.15;;;10.60;99.90;;;;;;4979925;28;20030;-70
2021/10/31 00:09:38;;;;;;;22.20;11.77;;;10.60;99.90;;;;;;4980617;28;20023;-70
2021/10/31 00:12:07;;;;;;;20.27;10.73;;;10.50;99.90;;;;;;4980446;28;20061;-70
2021/10/31 00:14:35;;;;;;;25.80;11.77;;;10.60;99.90;;;;;;4979648;28;20030;-70
2021/10/31 00:17:04;;;;;;;20.80;11.43;;;10.60;99.90;;;;;;4979782;28;20029;-70
2021/10/31 00:19:31;;;;;;;21.75;12.18;;;10.60;99.90;;;;;;4979891;28;20435;-70
2021/10/31 00:21:59;;;;;;;22.95;11.57;;;10.60;99.90;;;;;;4979995;28;20105;-70
2021/10/31 00:24:26;;;;;;;19.35;10.75;;;10.60;99.90;;;;;;4980124;28;20031;-70
2021/10/31 00:26:54;;;;;;;21.80;11.10;;;10.60;99.90;;;;;;4978758;28;20315;-70
2021/10/31 00:29:21;;;;;;;21.52;11.52;;;10.60;99.90;;;;;;4961538;28;20118;-70
2021/10/31 00:31:49;;;;;;;21.98;11.15;;;10.60;99.90;;;;;;4978569;28;20015;-70
2021/10/31 00:34:17;;;;;;;21.60;11.32;;;10.60;99.90;;;;;;4978679;28;20050;-70
2021/10/31 00:36:45;;;;;;;20.98;11.15;;;10.60;99.90;;;;;;4978550;28;20022;-70
2021/10/31 00:39:13;;;;;;;20.80;11.40;;;10.60;99.90;;;;;;4961341;28;20432;-70
2021/10/31 00:41:41;;;;;;;20.58;11.82;;;10.60;99.90;;;;;;4957893;29;20070;-70
2021/10/31 00:44:08;;;;;;;20.88;11.38;;;10.60;99.90;;;;;;4959297;29;20024;-70
2021/10/31 00:46:37;;;;;;;20.00;11.52;;;10.60;99.90;;;;;;4959041;29;20026;-70
2021/10/31 00:49:05;;;;;;;22.65;11.77;;;10.60;99.90;;;;;;4959666;28;20297;-69
2021/10/31 00:51:33;;;;;;;21.48;10.40;;;10.60;99.90;;;;;;4960146;29;20032;-70
2021/10/31 00:54:04;;;;;;;20.65;11.77;;;10.70;99.90;;;;;;4960051;29;20023;-70
2021/10/31 00:56:32;;;;;;;19.33;11.00;;;10.70;99.90;;;;;;4960261;29;20042;-69
2021/10/31 00:59:00;;;;;;;22.67;12.48;;;10.60;99.90;;;;;;4960348;29;20467;-70
2021/10/31 01:01:28;;;;;;;21.33;12.07;;;10.70;99.90;;;;;;4960247;29;20031;-69
2021/10/31 01:03:59;;;;;;;19.20;11.05;;;10.70;99.90;;;;;;4959644;28;20059;-70
2021/10/31 01:06:50;;;;;;;21.90;12.32;;;10.70;99.90;;;;;;4960181;29;20031;-70
2021/10/31 01:09:33;;;;;;;22.05;11.80;;;10.70;99.90;;;;;;4958867;29;20327;-70
2021/10/31 01:12:36;;;;;;;21.40;12.40;;;10.70;99.90;;;;;;4959200;29;20299;-70
2021/10/31 01:15:23;;;;;;;20.67;11.52;;;10.70;99.90;;;;;;4959286;28;20090;-70
2021/10/31 01:18:13;;;;;;;22.05;12.23;;;10.70;99.90;;;;;;4957924;28;20027;-70
2021/10/31 01:20:53;;;;;;;20.48;11.48;;;10.70;99.90;;;;;;4958566;28;20039;-70
2021/10/31 01:23:43;;;;;;;21.63;11.40;;;10.70;99.90;;;;;;4959255;29;20106;-70
2021/10/31 01:26:26;;;;;;;21.38;12.13;;;10.70;99.90;;;;;;4958411;29;20038;-70
2021/10/31 01:29:14;;;;;;;21.23;11.77;;;10.70;99.90;;;;;;4959048;29;20034;-70
2021/10/31 01:32:00;;;;;;;21.83;11.07;;;10.80;99.90;;;;;;4959045;29;20030;-69
2021/10/31 01:35:03;;;;;;;22.03;11.53;;;10.80;99.90;;;;;;4959473;28;20023;-69
2021/10/31 01:38:07;;;;;;;21.92;12.38;;;10.80;99.90;;;;;;4959819;28;20267;-70
2021/10/31 01:41:04;;;;;;;20.95;11.63;;;10.80;99.90;;;;;;4966624;28;20043;-70
2021/10/31 01:44:22;;;;;;;20.35;11.00;;;10.80;99.90;;;;;;4978168;28;20320;-70
2021/10/31 01:47:16;;;;;;;22.73;11.50;;;10.80;99.90;;;;;;4931608;28;20031;-70
2021/10/31 01:49:54;;;;;;;18.77;11.35;;;10.70;99.90;;;;;;4941760;28;20450;-69
2021/10/31 01:52:34;;;;;;;21.60;11.73;;;10.80;99.90;;;;;;4976728;28;20077;-70
2021/10/31 01:55:07;;;;;;;21.77;12.52;;;10.80;99.90;;;;;;4976772;28;20023;-69
2021/10/31 01:57:43;;;;;;;17.90;10.80;;;10.80;99.90;;;;;;4959520;28;20023;-70
2021/10/31 02:00:13;;;;;;;21.25;11.00;;;10.80;99.90;;;;;;4959511;28;20030;-70
2021/10/31 02:02:46;;;;;;;20.60;11.02;;;10.70;99.90;;;;;;4976845;28;20431;-70
2021/10/31 02:05:21;;;;;;;18.80;10.65;;;10.70;99.90;;;;;;4976778;28;20331;-70
2021/10/31 02:08:03;;;;;;;19.77;11.82;;;10.80;99.90;;;;;;4959406;28;20073;-70
2021/10/31 02:10:32;;;;;;;22.30;11.90;;;10.70;99.90;;;;;;4959305;28;20038;-70
2021/10/31 02:13:02;;;;;;;20.73;11.40;;;10.70;99.90;;;;;;4959716;28;20304;-70
2021/10/31 02:15:31;;;;;;;19.77;11.43;;;10.70;99.90;;;;;;4977295;28;20470;-70
2021/10/31 02:18:00;;;;;;;18.40;10.93;;;10.70;99.90;;;;;;4960180;28;20055;-70
2021/10/31 02:20:30;;;;;;;17.08;10.75;;;10.70;99.90;;;;;;4977232;28;20461;-70
2021/10/31 02:23:05;;;;;;;16.48;10.32;;;10.70;99.90;;;;;;4977935;28;20022;-70
2021/10/31 02:25:33;;;;;;;21.05;11.18;;;10.70;99.90;;;;;;4977736;28;20106;-70
2021/10/31 02:28:00;;;;;;;21.25;11.25;;;10.70;99.90;;;;;;4977782;28;20022;-70
2021/10/31 02:30:28;;;;;;;17.95;11.00;;;10.70;99.90;;;;;;4960028;28;20470;-69
2021/10/31 02:32:59;;;;;;;22.23;11.60;;;10.70;99.90;;;;;;4977390;28;20122;-70
2021/10/31 02:35:26;;;;;;;20.95;11.77;;;10.70;99.90;;;;;;4976684;28;20419;-70
2021/10/31 02:37:53;;;;;;;21.30;12.30;;;10.70;99.90;;;;;;4959038;28;20073;-70
2021/10/31 02:40:22;;;;;;;22.85;11.70;;;10.70;99.90;;;;;;4894857;28;2456647;-70
2021/10/31 02:42:51;;;;;;;19.08;11.05;;;10.80;99.90;;;;;;4980590;28;20035;-70
2021/10/31 02:45:19;;;;;;;20.08;11.23;;;10.80;99.90;;;;;;4980808;28;20027;-70
2021/10/31 02:47:56;;;;;;;28.30;12.35;;;10.80;99.90;;;;;;4980512;28;20033;-70
2021/10/31 02:50:26;;;;;;;18.23;10.93;;;10.80;99.90;;;;;;4980503;28;20038;-70
2021/10/31 02:53:18;;;;;;;18.73;11.25;;;10.80;99.90;;;;;;4963308;28;20327;-70
2021/10/31 02:56:01;;;;;;;20.25;12.18;;;10.80;99.90;;;;;;4981085;28;20403;-69
2021/10/31 02:58:38;;;;;;;21.15;12.07;;;10.80;99.90;;;;;;4981863;28;20027;-69
2021/10/31 03:01:07;;;;;;;21.05;11.88;;;10.80;99.90;;;;;;4981246;28;20026;-70
2021/10/31 03:03:35;;;;;;;20.42;11.63;;;10.80;99.90;;;;;;4981376;28;20026;-69
2021/10/31 03:06:04;;;;;;;22.13;11.57;;;10.80;99.90;;;;;;4981884;28;20320;-69
2021/10/31 03:08:32;;;;;;;21.10;12.77;;;10.80;99.90;;;;;;4981064;28;20112;-70
2021/10/31 03:11:08;;;;;;;19.80;11.20;;;10.70;99.90;;;;;;4981091;28;20053;-70
2021/10/31 03:13:37;;;;;;;21.95;11.55;;;10.70;99.90;;;;;;4981029;28;20025;-70
2021/10/31 03:16:05;;;;;;;24.27;13.63;;;10.70;99.90;;;;;;4963501;28;20030;-70
2021/10/31 03:18:33;;;;;;;23.40;13.85;;;10.70;99.90;;;;;;4980184;28;20023;-70
2021/10/31 03:21:01;;;;;;;25.15;12.65;;;10.70;99.90;;;;;;4979934;28;20027;-70
2021/10/31 03:23:29;;;;;;;26.60;14.00;;;10.70;99.90;;;;;;4980242;28;20102;-70
2021/10/31 03:25:57;;;;;;;21.58;11.75;;;10.70;99.90;;;;;;4979897;28;20031;-70
2021/10/31 03:28:24;;;;;;;23.58;13.85;;;10.70;99.90;;;;;;4980394;28;20030;-70
2021/10/31 03:30:51;;;;;;;22.73;13.07;;;10.60;99.90;;;;;;4980327;28;20031;-70
2021/10/31 03:33:19;;;;;;;23.38;13.20;;;10.70;99.90;;;;;;4979888;28;20055;-70
2021/10/31 03:35:47;;;;;;;22.83;12.85;;;10.70;99.90;;;;;;4979684;28;20423;-70
2021/10/31 03:38:14;;;;;;;22.33;13.27;;;10.60;99.90;;;;;;4980597;28;20019;-70
2021/10/31 03:40:41;;;;;;;23.85;13.32;;;10.60;99.90;;;;;;4980538;28;20050;-70
2021/10/31 03:43:08;;;;;;;23.17;13.15;;;10.60;99.90;;;;;;4980694;28;20057;-70
2021/10/31 03:45:39;;;;;;;21.75;12.48;;;10.70;99.90;;;;;;4980986;28;20051;-70
2021/10/31 03:48:06;;;;;;;21.25;12.55;;;10.70;99.90;;;;;;4963069;28;20038;-70
2021/10/31 03:50:34;;;;;;;23.00;12.35;;;10.70;99.90;;;;;;4979752;28;20309;-70
2021/10/31 03:53:01;;;;;;;21.65;12.82;;;10.70;99.90;;;;;;4981009;28;20035;-70
2021/10/31 03:55:29;;;;;;;23.90;13.70;;;10.70;99.90;;;;;;4963061;28;20443;-70
2021/10/31 03:57:56;;;;;;;23.95;12.93;;;10.70;99.90;;;;;;4979938;28;20331;-70
2021/10/31 04:00:24;;;;;;;24.95;13.32;;;10.60;99.90;;;;;;4979814;28;20019;-70
2021/10/31 04:02:51;;;;;;;24.45;12.60;;;10.70;99.90;;;;;;4961973;28;20086;-70
2021/10/31 04:05:19;;;;;;;23.50;13.30;;;10.60;99.90;;;;;;4979594;28;20053;-70
2021/10/31 04:07:47;;;;;;;22.17;12.15;;;10.60;99.90;;;;;;4979146;28;20023;-70
2021/10/31 04:10:15;;;;;;;23.85;12.38;;;10.60;99.90;;;;;;4979067;28;20126;-70
2021/10/31 04:12:42;;;;;;;20.67;12.20;;;10.50;99.90;;;;;;4961859;28;20023;-70
2021/10/31 04:15:10;;;;;;;24.13;13.02;;;10.50;99.90;;;;;;4979112;28;20074;-70
2021/10/31 04:17:37;;;;;;;24.92;13.88;;;10.40;99.90;;;;;;4978861;28;20018;-70
2021/10/31 04:20:07;;;;;;;26.33;11.98;;;10.30;99.90;;;;;;4979423;28;20101;-70
2021/10/31 04:22:35;;;;;;;27.02;13.35;;;10.30;99.90;;;;;;4979948;28;20027;-70
2021/10/31 04:25:03;;;;;;;25.70;13.80;;;10.30;99.90;;;;;;4979367;28;20034;-70
2021/10/31 04:27:31;;;;;;;23.10;12.52;;;10.30;99.90;;;;;;4979658;28;20023;-70
2021/10/31 04:29:58;;;;;;;21.75;12.82;;;10.30;99.90;;;;;;4979653;28;20031;-70
2021/10/31 04:32:26;;;;;;;21.73;12.52;;;10.30;99.90;;;;;;4979466;28;20084;-70
2021/10/31 04:34:54;;;;;;;25.15;13.45;;;10.30;99.90;;;;;;4979597;28;20023;-70
2021/10/31 04:37:21;;;;;;;24.85;13.75;;;10.30;99.90;;;;;;4979980;28;20023;-69
2021/10/31 04:39:49;;;;;;;23.08;13.32;;;10.30;99.90;;;;;;4979229;28;20026;-70
2021/10/31 04:42:16;;;;;;;23.17;12.90;;;10.40;99.90;;;;;;4978635;28;20105;-70
2021/10/31 04:44:44;;;;;;;22.50;12.55;;;10.40;99.90;;;;;;4979135;28;20047;-70
2021/10/31 04:47:11;;;;;;;23.75;12.85;;;10.40;99.90;;;;;;4961111;28;20486;-70
2021/10/31 04:49:39;;;;;;;22.63;13.13;;;10.40;99.90;;;;;;4978359;28;20037;-70
2021/10/31 04:52:06;;;;;;;27.73;14.23;;;10.30;99.90;;;;;;4961175;28;20023;-70
2021/10/31 04:54:34;;;;;;;24.95;13.20;;;10.20;99.90;;;;;;4978944;28;20089;-70
2021/10/31 04:57:01;;;;;;;25.10;13.57;;;10.20;99.90;;;;;;4978263;28;20022;-69
2021/10/31 04:59:29;;;;;;;23.27;12.77;;;10.10;99.90;;;;;;4978285;28;20019;-70
2021/10/31 05:01:56;;;;;;;22.48;11.75;;;10.10;99.90;;;;;;4977484;28;20077;-70
2021/10/31 05:04:23;;;;;;;23.95;13.70;;;10.10;99.90;;;;;;4979237;28;20023;-70
2021/10/31 05:06:51;;;;;;;22.98;12.57;;;10.10;99.90;;;;;;4979417;28;20027;-69
2021/10/31 05:09:19;;;;;;;20.63;12.20;;;10.00;99.90;;;;;;4978961;28;20015;-70
2021/10/31 05:11:47;;;;;;;22.92;12.98;;;10.10;99.90;;;;;;4961939;28;20320;-70
2021/10/31 05:14:13;;;;;;;23.08;13.10;;;10.10;99.90;;;;;;4961836;28;20390;-70
2021/10/31 05:16:41;;;;;;;21.77;12.55;;;10.10;99.90;;;;;;4979297;28;20081;-69
2021/10/31 05:19:10;;;;;;;24.65;13.25;;;10.10;99.90;;;;;;4979417;28;20022;-70
2021/10/31 05:21:38;;;;;;;25.40;13.70;;;10.00;99.90;;;;;;4979068;28;20015;-70
2021/10/31 05:24:06;;;;;;;28.60;12.65;;;10.00;99.90;;;;;;4978611;28;20419;-69
2021/10/31 05:26:34;;;;;;;25.05;12.80;;;9.90;99.90;;;;;;4960614;28;20126;-70
2021/10/31 05:29:02;;;;;;;25.88;13.63;;;9.90;99.90;;;;;;4977802;28;20077;-70
2021/10/31 05:31:29;;;;;;;26.88;13.93;;;9.90;99.90;;;;;;4977698;28;20027;-70
2021/10/31 05:33:57;;;;;;;25.83;14.13;;;9.90;99.90;;;;;;4977106;28;20037;-70
2021/10/31 05:36:25;;;;;;;24.92;13.98;;;9.90;99.90;;;;;;4978146;28;20425;-70
2021/10/31 05:38:52;;;;;;;24.52;14.20;;;9.90;99.90;;;;;;4978286;28;20101;-69
2021/10/31 05:41:20;;;;;;;27.90;14.80;;;9.90;99.90;;;;;;4977554;28;20125;-70
2021/10/31 05:43:47;;;;;;;25.42;13.93;;;9.90;99.90;;;;;;4977856;28;20023;-69
2021/10/31 05:46:15;;;;;;;25.77;13.88;;;10.00;99.90;;;;;;4960488;28;20049;-70
2021/10/31 05:48:43;;;;;;;25.98;13.57;;;10.00;99.90;;;;;;4978549;28;20411;-70
2021/10/31 05:51:10;;;;;;;26.35;14.07;;;10.00;99.90;;;;;;4961552;28;20093;-69
2021/10/31 05:53:38;;;;;;;26.33;14.43;;;10.00;99.90;;;;;;4978504;28;20026;-70
2021/10/31 05:56:07;;;;;;;23.35;13.77;;;10.00;99.90;;;;;;4977987;28;20031;-70
2021/10/31 05:58:34;;;;;;;29.55;15.23;;;10.00;99.90;;;;;;4978895;28;20054;-69
2021/10/31 06:01:01;;;;;;;26.08;14.30;;;10.10;99.90;;;;;;4978931;28;20026;-70
2021/10/31 06:03:29;;;;;;;22.40;12.85;;;10.00;99.90;;;;;;4978310;28;20072;-70
2021/10/31 06:05:58;;;;;;;29.73;14.38;;;10.10;99.90;;;;;;4978912;28;20503;-69
2021/10/31 06:08:26;;;;;;;24.80;13.85;;;10.10;99.90;;;;;;4960349;28;20335;-69
2021/10/31 06:10:54;;;;;;;27.25;14.27;;;10.00;99.90;;;;;;4977368;28;20058;-70
2021/10/31 06:13:21;;;;;;;28.02;14.00;;;10.10;99.90;;;;;;4978312;28;20419;-70
2021/10/31 06:15:49;;;;;;;24.73;13.25;;;10.00;99.90;;;;;;4981138;28;20034;-70
2021/10/31 06:18:19;;;;;;;27.60;13.07;;;10.10;99.90;;;;;;4980813;28;20033;-70
2021/10/31 06:20:47;;;;;;;29.08;14.68;;;10.10;99.90;;;;;;4980725;28;20031;-70
2021/10/31 06:23:24;;;;;;;28.02;14.68;;;10.10;99.90;;;;;;4981055;28;20362;-70
2021/10/31 06:25:52;;;;;;;27.17;14.13;;;10.10;99.90;;;;;;4963804;28;20034;-70
2021/10/31 06:28:19;;;;;;;25.63;13.30;;;10.10;99.90;;;;;;4980951;28;20023;-70
2021/10/31 06:30:47;;;;;;;28.55;14.80;;;10.20;99.90;;;;;;4981719;28;20027;-70
2021/10/31 06:33:14;;;;;;;26.58;13.48;;;10.20;99.90;;;;;;4981667;28;20050;-69
2021/10/31 06:35:42;;;;;;;24.58;13.90;;;10.20;99.90;;;;;;4981676;28;20035;-70
2021/10/31 06:38:10;;;;;;;27.77;13.82;;;10.30;99.90;;;;;;4981685;28;20023;-70
2021/10/31 06:40:37;;;;;;;25.80;14.32;;;10.30;99.90;;;;;;4981417;28;20462;-70
2021/10/31 06:43:05;;;;;;;28.73;14.43;;;10.40;99.90;;;;;;4981630;28;20309;-70
2021/10/31 06:45:32;;;;;;;26.65;15.77;;;10.40;99.90;;;;;;4982088;28;20023;-70
2021/10/31 06:48:02;;;;;;;26.67;13.77;;;10.40;99.90;;;;;;4981448;28;20031;-70
2021/10/31 06:50:30;;;;;;;27.08;15.23;;;10.40;99.90;;;;;;4981186;28;20018;-70
2021/10/31 06:52:58;;;;;;;25.55;13.82;;;10.50;99.90;;;;;;4979776;28;20033;-70
2021/10/31 06:55:26;;;;;;;24.70;13.38;;;10.50;99.90;;;;;;4980379;28;20034;-69
2021/10/31 06:57:55;;;;;;;24.23;14.95;;;10.50;99.90;;;;;;4963175;28;20427;-70
2021/10/31 07:00:23;;;;;;;24.23;12.95;;;10.50;99.90;;;;;;4980318;28;20034;-70
2021/10/31 07:02:51;;;;;;;25.90;13.05;;;10.60;99.90;;;;;;4979921;28;20033;-69
2021/10/31 07:05:19;;;;;;;23.65;13.27;;;10.60;99.90;;;;;;4963108;28;20069;-71
2021/10/31 07:07:46;;;;;;;23.50;13.07;;;10.60;99.90;;;;;;4980225;28;20027;-70
2021/10/31 07:10:14;;;;;;;25.17;13.40;;;10.60;99.90;;;;;;4980585;28;20058;-69
2021/10/31 07:12:43;;;;;;;22.33;12.93;;;10.60;99.90;;;;;;4962892;28;20030;-70
2021/10/31 07:15:12;;;;;;;23.90;12.80;;;10.60;99.90;;;;;;4981481;28;20356;-69
2021/10/31 07:17:40;;;;;;;24.02;14.00;;;10.60;99.90;;;;;;4980770;28;20498;-70
2021/10/31 07:20:10;;;;;;;22.10;13.57;;;10.70;99.90;;;;;;4980979;28;20027;-69
2021/10/31 07:22:37;;;;;;;25.95;15.10;;;10.70;99.90;;;;;;4981457;28;20023;-71
2021/10/31 07:25:05;;;;;;;20.83;11.98;;;10.70;99.90;;;;;;4981362;28;20303;-67
2021/10/31 07:27:33;;;;;;;23.38;12.77;;;10.70;99.90;;;;;;4980882;28;20023;-67
2021/10/31 07:30:00;;;;;;;22.65;13.20;;;10.70;99.90;;;;;;4963742;28;20031;-68
2021/10/31 07:32:28;;;;;;;20.25;12.32;;;10.70;99.90;;;;;;4980943;28;20301;-68
2021/10/31 07:34:55;;;;;;;22.80;13.57;;;10.60;99.90;;;;;;4980498;28;20035;-67
2021/10/31 07:37:23;;;;;;;24.67;12.85;;;10.70;99.90;;;;;;4979768;28;20019;-67
2021/10/31 07:39:55;;;;;;;23.02;13.07;;;10.70;99.90;;;;;;4979563;28;20019;-68
2021/10/31 07:42:30;;;;;;;21.52;12.45;;;10.70;99.90;;;;;;4980436;28;20367;-67
2021/10/31 07:44:59;;;;;;;24.88;13.38;;;10.80;99.90;;;;;;4980018;28;20019;-68
2021/10/31 07:47:27;;;;;;;21.95;13.07;;;10.80;99.90;;;;;;4962299;28;20125;-67
2021/10/31 07:49:55;;;;;;;21.55;12.07;;;10.80;99.90;;;;;;4979792;28;20023;-68
2021/10/31 07:52:23;;;;;;;20.13;11.88;;;10.90;99.90;;;;;;4979423;28;20030;-67
2021/10/31 07:54:50;;;;;;;22.00;12.40;;;10.90;99.90;;;;;;4980056;28;20023;-67
2021/10/31 07:57:20;;;;;;;20.05;12.18;;;11.00;99.90;;;;;;4979906;28;20038;-67
2021/10/31 07:59:49;;;;;;;20.55;11.55;;;11.10;99.90;;;;;;4980708;28;20319;-67
2021/10/31 08:02:16;;;;;;;19.40;11.95;;;11.20;99.90;;;;;;4979970;28;20102;-65
2021/10/31 08:04:44;;;;;;;20.15;11.57;;;11.30;99.90;;;;;;4980061;28;20411;-66
2021/10/31 08:07:13;;;;;;;23.55;11.65;;;11.30;99.90;;;;;;4980048;28;20059;-66
2021/10/31 08:09:41;;;;;;;15.90;10.25;;;11.30;99.90;;;;;;4980757;28;20058;-66
2021/10/31 08:12:09;;;;;;;16.80;10.70;;;11.30;99.90;;;;;;4980755;28;20023;-66
2021/10/31 08:14:36;;;;;;;18.15;10.80;;;11.40;99.90;;;;;;4980127;28;20022;-64
2021/10/31 08:17:04;;;;;;;20.15;12.38;;;11.40;99.90;;;;;;4979591;28;20408;-66
2021/10/31 08:19:32;;;;;;;19.45;11.07;;;11.50;99.90;;;;;;4979446;28;20018;-66
2021/10/31 08:22:00;;;;;;;18.05;11.05;;;11.50;99.90;;;;;;4979083;28;20045;-66
2021/10/31 08:24:28;;;;;;;21.13;12.10;;;11.60;99.90;;;;;;4979236;28;20315;-66
2021/10/31 08:26:55;;;;;;;16.25;10.45;;;11.70;99.90;;;;;;4978954;28;20423;-66
2021/10/31 08:29:24;;;;;;;17.50;11.05;;;11.80;99.90;;;;;;4978894;28;20042;-66
2021/10/31 08:31:55;;;;;;;19.35;11.52;;;11.80;99.90;;;;;;4978845;28;20085;-66
2021/10/31 08:34:25;;;;;;;17.92;11.45;;;11.90;99.90;;;;;;4978743;28;20106;-66
2021/10/31 08:36:52;;;;;;;16.88;10.82;;;12.00;99.90;;;;;;4977963;28;20038;-67
2021/10/31 08:39:28;;;;;;;15.68;9.40;;;12.10;99.90;;;;;;4961710;28;20319;-66
2021/10/31 08:41:56;;;;;;;16.80;10.52;;;12.10;99.90;;;;;;4959021;29;20050;-67
2021/10/31 08:44:25;;;;;;;17.60;9.82;;;12.20;99.90;;;;;;4960295;29;20432;-68
2021/10/31 08:46:52;;;;;;;17.35;10.15;;;12.30;99.90;;;;;;4959079;28;20031;-67
2021/10/31 08:49:20;;;;;;;15.27;9.50;;;12.40;99.90;;;;;;4960364;29;20050;-66
2021/10/31 08:51:47;;;;;;;14.20;9.50;;;12.50;99.90;;;;;;4960529;28;20408;-66
2021/10/31 08:54:15;;;;;;;16.73;9.40;;;12.50;99.90;;;;;;4960135;28;20055;-68
2021/10/31 08:56:43;;;;;;;12.93;8.50;;;12.60;99.90;;;;;;4959863;28;20023;-68
2021/10/31 08:59:11;;;;;;;16.48;8.05;;;12.70;99.90;;;;;;4960250;28;20023;-67
2021/10/31 09:01:38;;;;;;;13.80;8.60;;;12.80;99.90;;;;;;4959477;28;20102;-68
2021/10/31 09:04:05;;;;;;;13.02;7.85;;;12.90;99.90;;;;;;4958971;28;20082;-67
2021/10/31 09:06:32;;;;;;;11.02;7.35;;;13.00;99.90;;;;;;4957763;29;20023;-67
2021/10/31 09:09:00;;;;;;;12.70;7.43;;;13.10;99.90;;;;;;4958858;28;20034;-67
2021/10/31 09:11:28;;;;;;;10.18;6.63;;;13.20;99.90;;;;;;4958824;28;20031;-67
2021/10/31 09:13:58;;;;;;;10.38;7.25;;;13.30;99.90;;;;;;4958863;29;20032;-67
2021/10/31 09:16:26;;;;;;;11.40;6.78;;;13.40;99.90;;;;;;4958662;28;20027;-66
2021/10/31 09:18:54;;;;;;;12.32;6.93;;;13.50;99.90;;;;;;4958641;28;20403;-68
2021/10/31 09:21:24;;;;;;;9.77;6.82;;;13.50;99.90;;;;;;4958664;29;20265;-67
2021/10/31 09:23:53;;;;;;;9.45;6.30;;;13.60;99.90;;;;;;4959521;28;20039;-68
2021/10/31 09:26:21;;;;;;;11.45;5.93;;;13.70;99.90;;;;;;4959461;28;20023;-68
2021/10/31 09:28:49;;;;;;;8.02;5.45;;;13.80;99.90;;;;;;4958423;29;20023;-68
2021/10/31 09:31:17;;;;;;;9.00;5.32;;;13.80;99.90;;;;;;4959620;28;20091;-69
2021/10/31 09:33:47;;;;;;;7.68;5.32;;;13.90;99.90;;;;;;4959658;28;20027;-67
2021/10/31 09:36:14;;;;;;;10.10;6.03;;;13.90;99.90;;;;;;4959329;28;20038;-66
2021/10/31 09:38:42;;;;;;;9.95;5.93;;;14.00;99.90;;;;;;4958441;29;20035;-67
2021/10/31 09:41:13;;;;;;;9.13;6.05;;;14.00;99.90;;;;;;4958124;29;20047;-67
2021/10/31 09:43:49;;;;;;;9.18;6.05;;;14.00;99.90;;;;;;4958637;28;20086;-64
2021/10/31 09:46:20;;;;;;;9.50;5.43;;;14.00;99.90;;;;;;4958767;28;20027;-68
2021/10/31 09:48:47;;;;;;;12.00;6.18;;;14.10;99.90;;;;;;4961349;28;20031;-67
2021/10/31 09:51:15;;;;;;;9.25;5.55;;;14.10;99.90;;;;;;4963107;28;20083;-67
2021/10/31 09:53:44;;;;;;;9.82;5.90;;;14.20;99.90;;;;;;4962076;29;20050;-70
2021/10/31 09:56:11;;;;;;;9.15;5.82;;;14.20;99.90;;;;;;4962932;28;20046;-66
2021/10/31 09:58:42;;;;;;;7.90;5.70;;;14.30;99.90;;;;;;4963108;28;20286;-70
2021/10/31 10:01:30;;;;;;;8.48;5.68;;;14.30;99.90;;;;;;4962609;28;20024;-68
2021/10/31 10:03:59;;;;;;;8.38;5.72;;;14.40;99.90;;;;;;4963087;28;20028;-67
2021/10/31 10:06:28;;;;;;;9.07;5.65;;;14.50;99.90;;;;;;4963201;28;20031;-67
2021/10/31 10:09:03;;;;;;;10.35;5.40;;;14.50;99.90;;;;;;4962211;29;20031;-67
2021/10/31 10:11:37;;;;;;;7.20;4.88;;;14.60;99.90;;;;;;4963593;28;20031;-67
2021/10/31 10:14:19;;;;;;;7.45;5.43;;;14.80;99.90;;;;;;4962137;29;20027;-67
2021/10/31 10:16:48;;;;;;;7.05;5.15;;;14.80;99.90;;;;;;4962848;28;20039;-67
2021/10/31 10:19:25;;;;;;;7.53;5.10;;;14.90;99.90;;;;;;4963476;28;20047;-67
2021/10/31 10:22:06;;;;;;;7.80;4.93;;;15.00;99.90;;;;;;4962857;28;20019;-67
2021/10/31 10:24:36;;;;;;;7.07;5.20;;;15.00;99.90;;;;;;4962141;28;20042;-67
2021/10/31 10:27:08;;;;;;;10.60;4.88;;;15.10;99.90;;;;;;4961924;28;20019;-68
2021/10/31 10:29:40;;;;;;;6.70;4.50;;;15.10;99.90;;;;;;4961805;28;20023;-69
2021/10/31 10:32:14;;;;;;;8.77;4.40;;;15.10;99.90;;;;;;4962272;28;20027;-69
2021/10/31 10:34:50;;;;;;;8.77;4.82;;;15.10;99.90;;;;;;4961569;29;20427;-69
2021/10/31 10:37:22;;;;;;;6.63;4.80;;;15.10;99.90;;;;;;4961641;28;20023;-69
2021/10/31 10:40:09;;;;;;;7.55;5.00;;;15.20;99.90;;;;;;4962919;28;20030;-69
2021/10/31 10:42:41;;;;;;;10.63;4.38;;;15.30;99.90;;;;;;4980785;28;20025;-70
2021/10/31 10:45:11;;;;;;;7.13;4.22;;;15.40;99.90;;;;;;4981172;28;20419;-67
2021/10/31 10:47:46;;;;;;;5.15;3.78;;;15.50;99.90;;;;;;4981557;28;20054;-67
2021/10/31 10:50:21;;;;;;;7.50;4.05;;;15.60;99.90;;;;;;4964361;28;20424;-67
2021/10/31 10:52:49;;;;;;;7.30;4.00;;;15.70;99.90;;;;;;4981816;28;20030;-68
2021/10/31 10:55:20;;;;;;;5.63;2.95;;;15.80;99.90;;;;;;4964785;28;20109;-68
2021/10/31 10:57:59;;;;;;;4.32;2.50;;;15.90;99.90;;;;;;4981984;28;20026;-68
2021/10/31 11:00:32;;;;;;;4.93;2.47;;;16.00;99.90;;;;;;4981698;28;20301;-67
2021/10/31 11:03:03;;;;;;;4.90;2.80;;;16.10;99.90;;;;;;4981607;28;20023;-68
2021/10/31 11:05:43;;;;;;;6.90;2.55;;;16.10;99.90;;;;;;4981384;28;20081;-67
2021/10/31 11:08:15;;;;;;;5.20;2.72;;;16.20;99.90;;;;;;4981091;28;20027;-68
2021/10/31 11:10:58;;;;;;;3.70;2.75;;;16.30;99.90;;;;;;4981090;28;20027;-68
2021/10/31 11:13:29;;;;;;;4.38;2.53;;;16.30;99.90;;;;;;4980199;28;20027;-70
2021/10/31 11:15:59;;;;;;;8.02;2.40;;;16.40;99.90;;;;;;4980105;28;20038;-68
2021/10/31 11:18:27;;;;;;;3.58;2.17;;;16.30;99.90;;;;;;4980039;28;20034;-68
2021/10/31 11:20:54;;;;;;;4.60;3.28;;;16.30;99.90;;;;;;4980280;28;20015;-68
2021/10/31 11:23:23;;;;;;;3.85;2.30;;;16.20;99.90;;;;;;4980130;28;20023;-68
2021/10/31 11:25:51;;;;;;;3.63;2.60;;;16.10;99.90;;;;;;4962833;28;20086;-68
2021/10/31 11:28:21;;;;;;;4.50;2.83;;;16.00;99.90;;;;;;4980470;28;20086;-68
2021/10/31 11:30:51;;;;;;;3.60;2.55;;;16.00;99.90;;;;;;4981333;28;20027;-67
2021/10/31 11:33:19;;;;;;;5.80;3.00;;;15.90;99.90;;;;;;4980893;28;20102;-67
2021/10/31 11:35:47;;;;;;;8.27;3.25;;;15.90;99.90;;;;;;4981217;28;20474;-67
2021/10/31 11:38:23;;;;;;;7.13;3.83;;;15.90;99.90;;;;;;4981047;28;20056;-66
2021/10/31 11:41:08;;;;;;;5.45;3.92;;;15.90;99.90;;;;;;4980696;28;20070;-67
2021/10/31 11:43:38;;;;;;;6.20;3.90;;;15.80;99.90;;;;;;4963569;28;20019;-67
2021/10/31 11:46:08;;;;;;;6.75;4.13;;;15.80;99.90;;;;;;4981093;28;20367;-68
2021/10/31 11:48:37;;;;;;;5.53;3.03;;;15.80;99.90;;;;;;4979631;28;20027;-67
2021/10/31 11:51:06;;;;;;;6.00;3.00;;;15.80;99.90;;;;;;4979518;28;20030;-67
2021/10/31 11:54:05;;;;;;;7.72;3.50;;;15.80;99.90;;;;;;4979667;28;20110;-67
2021/10/31 11:56:39;;;;;;;6.10;3.33;;;15.90;99.90;;;;;;4979294;28;20050;-68
2021/10/31 11:59:16;;;;;;;4.55;2.80;;;15.80;99.90;;;;;;4979732;28;20023;-68
2021/10/31 12:01:48;;;;;;;;;;;15.80;99.90;;;;;;4979662;28;20034;-68
2021/10/31 12:05:04;;;;;;;4.40;2.88;;;15.80;99.90;;;;;;4979726;28;19929;-67
2021/10/31 12:07:45;;;;;;;4.90;3.17;;;15.80;99.90;;;;;;4964954;28;20078;-67
2021/10/31 12:10:30;;;;;;;4.28;2.78;;;15.80;99.90;;;;;;4980049;28;20031;-68
2021/10/31 12:13:17;;;;;;;4.05;2.92;;;15.80;99.90;;;;;;4979656;28;20023;-67
2021/10/31 12:16:16;;;;;;;6.95;2.85;;;15.90;99.90;;;;;;4979814;28;20031;-68
2021/10/31 12:19:08;;;;;;;6.97;2.58;;;16.00;99.90;;;;;;4979972;28;20015;-66
2021/10/31 12:21:38;;;;;;;4.95;2.10;;;16.00;99.90;;;;;;4979842;28;20096;-67
2021/10/31 12:24:13;;;;;;;3.88;2.20;;;16.10;99.90;;;;;;4979718;28;20313;-67
2021/10/31 12:26:44;;;;;;;4.83;2.20;;;16.10;99.90;;;;;;4979713;28;20031;-67
2021/10/31 12:29:21;;;;;;;3.78;1.90;;;16.20;99.90;;;;;;4962400;28;20054;-68
2021/10/31 12:32:21;;;;;;;4.35;1.95;;;16.30;99.90;;;;;;4979248;28;20312;-68
2021/10/31 12:34:53;;;;;;;8.98;1.83;;;16.30;99.90;;;;;;4975093;28;20096;-69
2021/10/31 12:37:23;;;;;;;4.68;2.22;;;16.40;99.90;;;;;;4978665;28;20019;-69
2021/10/31 12:40:07;;;;;;;4.28;1.88;;;16.60;99.90;;;;;;4961302;28;20030;-69
2021/10/31 12:42:54;;;;;;;5.55;1.17;;;16.80;99.90;;;;;;4978545;28;20023;-69
2021/10/31 12:45:29;;;;;;;2.92;1.55;;;17.00;99.90;;;;;;4978465;28;20031;-69
2021/10/31 12:48:11;;;;;;;5.97;1.45;;;17.20;99.90;;;;;;4978474;28;20023;-69
2021/10/31 12:50:47;;;;;;;2.80;1.30;;;17.30;99.90;;;;;;4978722;28;20411;-69
2021/10/31 12:53:16;;;;;;;2.58;1.05;;;17.40;99.90;;;;;;4979495;28;20026;-69
2021/10/31 12:55:45;;;;;;;3.30;1.38;;;17.50;99.90;;;;;;4979219;28;20019;-72